Latest METARs, TAFs and NOTAMs for ETSI


---------------------------------------------------------------------------
	(OBSERVATIONS)
ETSI 070620Z 07004KT 9999 22/16 Q1016 BLU+BLU+=
ETSI 070520Z 09003KT 9999 19/16 Q1017 BLU+BLU+=
ETSI 070420Z 06004KT 9999 18/15 Q1017 BLU+BLU+=
---------------------------------------------------------------------------
	(FC)
TAF ETSI 070415Z 0705/0714 08005KT 9999 NSW FEW330
     BECMG 0711/0713 23007KT 9999 NSW SCT270=
---------------------------------------------------------------------------
	(TERMINAL AREA FORECAST)
ETSI 070415Z 0705/0714 08005KT 9999 NSW FEW330
    BECMG  0711/0713 23007KT 9999 NSW SCT270=
---------------------------------------------------------------------------
	(NOTAMS)


ETSI E1073/15 SPECIAL ACTIVITY AREA ESTABLISHED FOR AEROBATIC
    FLIGHTS 3NM RADIUS CENTERED AT 484200N 0113200E (INGOLSTADT).
    GND - 6000FT AMSL, SAT SUN 0700-SS AND MAY 01 14 25 AND JUN
    04 0700-SS, 18 APR 07:00 2015 UNTIL 12 JUL 19:30 2015. CREATED:
    14 APR 06:07 2015

ETSI P3673/15 AD ETSI: LIMITED RADAR COVERAGE BELOW 5000FT MSL
    DETAILED INFORMATION BY INGO RADAR. 22 MAY 06:40 2015 UNTIL
    21 AUG 12:00 2015. CREATED: 22 MAY 06:42 2015

ETSI P3675/15 AD ETSI: TACAN APCH RWY07R SUSPENDED. 22 MAY 06:41
    2015 UNTIL 21 AUG 12:00 2015. CREATED: 22 MAY 06:44 2015

ETSI P3677/15 AD ETSI: PAR RWY25R/07L OUT OF SERVICE. 22 MAY
    06:45 2015 UNTIL 21 AUG 12:00 2015. CREATED: 22 MAY 06:48
    2015

ETSI P3678/15 AD ETSI: NO SRA POSSIBLE. 22 MAY 06:43 2015 UNTIL
    21 AUG 12:00 2015. CREATED: 22 MAY 06:49 2015

ETSI P3679/15 AD ETSI: PAR RWY25L/07R OUT OF SERVICE. 22 MAY
    06:47 2015 UNTIL 21 AUG 12:00 2015. CREATED: 22 MAY 06:56
    2015

ETSI P4604/15 AD ETSI: TWY S BTN A1 AND A2 CLSD. 02 JUL 05:00
    2015 UNTIL 10 JUL 12:00 2015. CREATED: 29 JUN 13:21 2015

ETSI P4723/15 AD ETSI: AERODROME CLOSED EXCEPT CIVIL AIR TRAFFIC
    WITH PPR. 09 JUL 07:00 2015 UNTIL 09 JUL 15:00 2015. CREATED:
    03 JUL 07:36 2015

---------------------------------------------------------------------------